sensor_id;sensor_type;location;lat;lon;timestamp;pressure;altitude;pressure_sealevel;temperature;humidity
21102;BME280;10709;49.006;12.100;2023-05-19T00:01:13;48702.94;;;-146.00;63.95
21102;BME280;10709;49.006;12.100;2023-05-19T00:03:55;48675.50;;;-146.00;64.18
21102;BME280;10709;49.006;12.100;2023-05-19T00:06:30;48699.03;;;-146.00;64.16
21102;BME280;10709;49.006;12.100;2023-05-19T00:09:00;48679.44;;;-146.00;64.37
21102;BME280;10709;49.006;12.100;2023-05-19T00:11:27;48695.09;;;-146.00;63.58
21102;BME280;10709;49.006;12.100;2023-05-19T00:13:56;48700.97;;;-146.00;63.39
21102;BME280;10709;49.006;12.100;2023-05-19T00:16:25;48699.03;;;-146.00;61.92
21102;BME280;10709;49.006;12.100;2023-05-19T00:18:52;48695.09;;;-146.00;61.75
21102;BME280;10709;49.006;12.100;2023-05-19T00:21:20;48687.28;;;-146.00;60.98
21102;BME280;10709;49.006;12.100;2023-05-19T00:23:48;48669.63;;;-146.00;60.72
21102;BME280;10709;49.006;12.100;2023-05-19T00:26:15;48687.28;;;-146.00;60.68
21102;BME280;10709;49.006;12.100;2023-05-19T00:28:44;48683.34;;;-146.00;58.64
21102;BME280;10709;49.006;12.100;2023-05-19T00:31:11;48681.41;;;-146.00;58.85
21102;BME280;10709;49.006;12.100;2023-05-19T00:33:37;48648.09;;;-146.00;58.95
21102;BME280;10709;49.006;12.100;2023-05-19T00:36:04;48665.72;;;-146.00;59.12
21102;BME280;10709;49.006;12.100;2023-05-19T00:38:32;48695.09;;;-146.00;59.33
21102;BME280;10709;49.006;12.100;2023-05-19T00:41:00;48648.09;;;-146.00;59.26
21102;BME280;10709;49.006;12.100;2023-05-19T00:43:27;48677.47;;;-146.00;59.28
21102;BME280;10709;49.006;12.100;2023-05-19T00:45:57;48714.69;;;-146.00;59.17
21102;BME280;10709;49.006;12.100;2023-05-19T00:48:24;48695.09;;;-146.00;58.77
21102;BME280;10709;49.006;12.100;2023-05-19T00:50:54;48653.97;;;-146.00;58.97
21102;BME280;10709;49.006;12.100;2023-05-19T00:53:22;48677.47;;;-146.00;59.04
21102;BME280;10709;49.006;12.100;2023-05-19T00:55:51;48691.19;;;-146.00;59.28
21102;BME280;10709;49.006;12.100;2023-05-19T00:58:18;48663.75;;;-146.00;59.20
21102;BME280;10709;49.006;12.100;2023-05-19T01:00:44;48652.00;;;-146.00;59.21
21102;BME280;10709;49.006;12.100;2023-05-19T01:03:11;48673.56;;;-146.00;59.05
21102;BME280;10709;49.006;12.100;2023-05-19T01:05:40;48695.09;;;-146.00;59.09
21102;BME280;10709;49.006;12.100;2023-05-19T01:08:27;48663.75;;;-146.00;59.19
21102;BME280;10709;49.006;12.100;2023-05-19T01:10:54;48675.50;;;-146.00;59.62
21102;BME280;10709;49.006;12.100;2023-05-19T01:13:21;48702.94;;;-146.00;59.71
21102;BME280;10709;49.006;12.100;2023-05-19T01:21:25;48673.56;;;-146.00;60.37
21102;BME280;10709;49.006;12.100;2023-05-19T01:33:02;48679.44;;;-146.00;60.37
21102;BME280;10709;49.006;12.100;2023-05-19T01:35:35;48687.28;;;-146.00;60.70
21102;BME280;10709;49.006;12.100;2023-05-19T01:38:04;48671.59;;;-146.00;60.42
21102;BME280;10709;49.006;12.100;2023-05-19T01:40:33;48687.28;;;-146.00;60.68
21102;BME280;10709;49.006;12.100;2023-05-19T01:43:06;48642.22;;;-146.00;60.73
21102;BME280;10709;49.006;12.100;2023-05-19T01:45:35;48667.69;;;-146.00;60.75
21102;BME280;10709;49.006;12.100;2023-05-19T01:48:03;48665.72;;;-146.00;60.85
21102;BME280;10709;49.006;12.100;2023-05-19T01:50:31;48675.50;;;-146.00;61.18
21102;BME280;10709;49.006;12.100;2023-05-19T01:53:00;48659.84;;;-146.00;61.27
21102;BME280;10709;49.006;12.100;2023-05-19T01:55:27;48659.84;;;-146.00;60.99
21102;BME280;10709;49.006;12.100;2023-05-19T01:58:08;48648.09;;;-146.00;61.14
21102;BME280;10709;49.006;12.100;2023-05-19T02:00:52;48652.00;;;-146.00;61.34
21102;BME280;10709;49.006;12.100;2023-05-19T02:09:38;48673.56;;;-146.00;60.96
21102;BME280;10709;49.006;12.100;2023-05-19T02:12:33;48663.75;;;-146.00;60.68
21102;BME280;10709;49.006;12.100;2023-05-19T02:15:06;48679.44;;;-146.00;60.74
21102;BME280;10709;49.006;12.100;2023-05-19T02:17:39;48667.69;;;-146.00;61.11
21102;BME280;10709;49.006;12.100;2023-05-19T02:20:14;48655.94;;;-146.00;60.92
21102;BME280;10709;49.006;12.100;2023-05-19T02:22:41;48636.34;;;-146.00;61.17
21102;BME280;10709;49.006;12.100;2023-05-19T02:25:08;48640.25;;;-146.00;61.20
21102;BME280;10709;49.006;12.100;2023-05-19T02:27:36;48663.75;;;-146.00;61.23
21102;BME280;10709;49.006;12.100;2023-05-19T02:30:04;48683.34;;;-146.00;61.31
21102;BME280;10709;49.006;12.100;2023-05-19T02:32:31;48667.69;;;-146.00;61.19
21102;BME280;10709;49.006;12.100;2023-05-19T02:34:58;48667.69;;;-146.00;61.60
21102;BME280;10709;49.006;12.100;2023-05-19T02:37:26;48640.25;;;-146.00;61.72
21102;BME280;10709;49.006;12.100;2023-05-19T02:39:54;48663.75;;;-146.00;61.74
21102;BME280;10709;49.006;12.100;2023-05-19T02:42:23;48665.72;;;-146.00;61.41
21102;BME280;10709;49.006;12.100;2023-05-19T02:44:50;48657.88;;;-146.00;61.34
21102;BME280;10709;49.006;12.100;2023-05-19T02:47:17;48636.34;;;-146.00;61.39
21102;BME280;10709;49.006;12.100;2023-05-19T02:49:44;48657.88;;;-146.00;61.39
21102;BME280;10709;49.006;12.100;2023-05-19T02:52:11;48659.84;;;-146.00;61.96
21102;BME280;10709;49.006;12.100;2023-05-19T02:54:37;48677.47;;;-146.00;62.11
21102;BME280;10709;49.006;12.100;2023-05-19T02:57:06;48685.31;;;-146.00;61.57
21102;BME280;10709;49.006;12.100;2023-05-19T02:59:33;48675.50;;;-146.00;62.06
21102;BME280;10709;49.006;12.100;2023-05-19T03:02:01;48659.84;;;-146.00;62.30
21102;BME280;10709;49.006;12.100;2023-05-19T03:04:28;48648.09;;;-146.00;62.00
21102;BME280;10709;49.006;12.100;2023-05-19T03:06:57;48648.09;;;-146.00;62.34
21102;BME280;10709;49.006;12.100;2023-05-19T03:09:26;48679.44;;;-146.00;63.01
21102;BME280;10709;49.006;12.100;2023-05-19T03:11:53;48655.94;;;-146.00;62.56
21102;BME280;10709;49.006;12.100;2023-05-19T03:14:20;48667.69;;;-146.00;62.23
21102;BME280;10709;49.006;12.100;2023-05-19T03:16:49;48652.00;;;-146.00;62.45
21102;BME280;10709;49.006;12.100;2023-05-19T03:19:16;48655.94;;;-146.00;62.65
21102;BME280;10709;49.006;12.100;2023-05-19T03:21:43;48661.81;;;-146.00;62.63
21102;BME280;10709;49.006;12.100;2023-05-19T03:24:10;48650.06;;;-146.00;62.56
21102;BME280;10709;49.006;12.100;2023-05-19T03:26:37;48657.88;;;-146.00;62.50
21102;BME280;10709;49.006;12.100;2023-05-19T03:29:03;48642.22;;;-146.00;62.18
21102;BME280;10709;49.006;12.100;2023-05-19T03:31:30;48657.88;;;-146.00;62.44
21102;BME280;10709;49.006;12.100;2023-05-19T03:33:58;48667.69;;;-146.00;62.44
21102;BME280;10709;49.006;12.100;2023-05-19T03:36:24;48659.84;;;-146.00;62.18
21102;BME280;10709;49.006;12.100;2023-05-19T03:38:57;48675.50;;;-146.00;61.69
21102;BME280;10709;49.006;12.100;2023-05-19T03:41:24;48663.75;;;-146.00;61.98
21102;BME280;10709;49.006;12.100;2023-05-19T03:43:51;48671.59;;;-146.00;61.96
21102;BME280;10709;49.006;12.100;2023-05-19T03:46:18;48632.41;;;-146.00;62.00
21102;BME280;10709;49.006;12.100;2023-05-19T03:48:45;48675.50;;;-146.00;62.31
21102;BME280;10709;49.006;12.100;2023-05-19T03:51:11;48663.75;;;-146.00;62.40
21102;BME280;10709;49.006;12.100;2023-05-19T03:53:38;48659.84;;;-146.00;63.14
21102;BME280;10709;49.006;12.100;2023-05-19T03:56:06;48636.34;;;-146.00;62.75
21102;BME280;10709;49.006;12.100;2023-05-19T03:58:33;48675.50;;;-146.00;62.67
21102;BME280;10709;49.006;12.100;2023-05-19T04:01:02;48652.00;;;-146.00;62.93
21102;BME280;10709;49.006;12.100;2023-05-19T04:03:29;48655.94;;;-146.00;62.96
21102;BME280;10709;49.006;12.100;2023-05-19T04:05:56;48652.00;;;-146.00;62.89
21102;BME280;10709;49.006;12.100;2023-05-19T04:08:23;48655.94;;;-146.00;62.56
21102;BME280;10709;49.006;12.100;2023-05-19T04:10:50;48665.72;;;-146.00;62.63
21102;BME280;10709;49.006;12.100;2023-05-19T04:13:17;48644.16;;;-146.00;62.69
21102;BME280;10709;49.006;12.100;2023-05-19T04:15:43;48677.47;;;-146.00;63.32
21102;BME280;10709;49.006;12.100;2023-05-19T04:18:10;48667.69;;;-146.00;63.49
21102;BME280;10709;49.006;12.100;2023-05-19T04:20:36;48652.00;;;-146.00;63.60
21102;BME280;10709;49.006;12.100;2023-05-19T04:23:03;48644.16;;;-146.00;63.80
21102;BME280;10709;49.006;12.100;2023-05-19T04:25:29;48653.97;;;-146.00;63.78
21102;BME280;10709;49.006;12.100;2023-05-19T04:27:56;48653.97;;;-146.00;63.32
21102;BME280;10709;49.006;12.100;2023-05-19T04:30:23;48663.75;;;-146.00;63.80
21102;BME280;10709;49.006;12.100;2023-05-19T04:32:50;48636.34;;;-146.00;63.56
21102;BME280;10709;49.006;12.100;2023-05-19T04:35:18;48667.69;;;-146.00;63.54
21102;BME280;10709;49.006;12.100;2023-05-19T04:37:45;48644.16;;;-146.00;63.98
21102;BME280;10709;49.006;12.100;2023-05-19T04:40:12;48640.25;;;-146.00;64.04
21102;BME280;10709;49.006;12.100;2023-05-19T04:42:38;48663.75;;;-146.00;64.22
21102;BME280;10709;49.006;12.100;2023-05-19T04:45:07;48675.50;;;-146.00;64.20
21102;BME280;10709;49.006;12.100;2023-05-19T04:47:34;48642.22;;;-146.00;64.95
21102;BME280;10709;49.006;12.100;2023-05-19T04:50:04;48648.09;;;-146.00;64.81
21102;BME280;10709;49.006;12.100;2023-05-19T04:52:31;48655.94;;;-146.00;64.36
21102;BME280;10709;49.006;12.100;2023-05-19T04:54:59;48669.63;;;-146.00;64.78
21102;BME280;10709;49.006;12.100;2023-05-19T04:57:26;48655.94;;;-146.00;64.93
21102;BME280;10709;49.006;12.100;2023-05-19T04:59:52;48667.69;;;-146.00;64.66
21102;BME280;10709;49.006;12.100;2023-05-19T05:02:25;48632.41;;;-146.00;64.91
21102;BME280;10709;49.006;12.100;2023-05-19T05:04:54;48636.34;;;-146.00;64.89
21102;BME280;10709;49.006;12.100;2023-05-19T05:07:22;48640.25;;;-146.00;64.90
21102;BME280;10709;49.006;12.100;2023-05-19T05:09:48;48663.75;;;-146.00;64.73
21102;BME280;10709;49.006;12.100;2023-05-19T05:12:16;48653.97;;;-146.00;64.54
21102;BME280;10709;49.006;12.100;2023-05-19T05:14:44;48648.09;;;-146.00;64.71
21102;BME280;10709;49.006;12.100;2023-05-19T05:17:11;48675.50;;;-146.00;64.77
21102;BME280;10709;49.006;12.100;2023-05-19T05:19:39;48620.66;;;-146.00;64.55
21102;BME280;10709;49.006;12.100;2023-05-19T05:22:06;48652.00;;;-146.00;64.64
21102;BME280;10709;49.006;12.100;2023-05-19T05:24:33;48667.69;;;-146.00;64.21
21102;BME280;10709;49.006;12.100;2023-05-19T05:27:00;48657.88;;;-146.00;64.35
21102;BME280;10709;49.006;12.100;2023-05-19T05:29:27;48687.28;;;-146.00;64.46
21102;BME280;10709;49.006;12.100;2023-05-19T05:31:55;48650.06;;;-146.00;64.70
21102;BME280;10709;49.006;12.100;2023-05-19T05:34:22;48657.88;;;-146.00;64.55
21102;BME280;10709;49.006;12.100;2023-05-19T05:36:49;48667.69;;;-146.00;64.67
21102;BME280;10709;49.006;12.100;2023-05-19T05:39:15;48695.09;;;-146.00;64.45
21102;BME280;10709;49.006;12.100;2023-05-19T05:41:42;48663.75;;;-146.00;64.33
21102;BME280;10709;49.006;12.100;2023-05-19T05:44:11;48655.94;;;-146.00;64.49
21102;BME280;10709;49.006;12.100;2023-05-19T05:46:38;48675.50;;;-146.00;64.72
21102;BME280;10709;49.006;12.100;2023-05-19T05:49:05;48665.72;;;-146.00;64.13
21102;BME280;10709;49.006;12.100;2023-05-19T05:51:36;48671.59;;;-146.00;64.00
21102;BME280;10709;49.006;12.100;2023-05-19T05:54:05;48652.00;;;-146.00;63.75
21102;BME280;10709;49.006;12.100;2023-05-19T05:56:32;48653.97;;;-146.00;63.70
21102;BME280;10709;49.006;12.100;2023-05-19T05:59:00;48652.00;;;-146.00;63.74
21102;BME280;10709;49.006;12.100;2023-05-19T06:01:27;48640.25;;;-146.00;63.56
21102;BME280;10709;49.006;12.100;2023-05-19T06:03:55;48659.84;;;-146.00;64.41
21102;BME280;10709;49.006;12.100;2023-05-19T06:06:22;48679.44;;;-146.00;63.84
21102;BME280;10709;49.006;12.100;2023-05-19T06:08:48;48657.88;;;-146.00;63.58
21102;BME280;10709;49.006;12.100;2023-05-19T06:11:15;48675.50;;;-146.00;63.45
21102;BME280;10709;49.006;12.100;2023-05-19T06:13:42;48659.84;;;-146.00;63.69
21102;BME280;10709;49.006;12.100;2023-05-19T06:16:08;48665.72;;;-146.00;63.65
21102;BME280;10709;49.006;12.100;2023-05-19T06:18:35;48663.75;;;-146.00;63.65
21102;BME280;10709;49.006;12.100;2023-05-19T06:21:02;48655.94;;;-146.00;62.96
21102;BME280;10709;49.006;12.100;2023-05-19T06:23:29;48671.59;;;-146.00;63.40
21102;BME280;10709;49.006;12.100;2023-05-19T06:25:56;48646.13;;;-146.00;63.35
21102;BME280;10709;49.006;12.100;2023-05-19T06:28:28;48675.50;;;-146.00;63.23
21102;BME280;10709;49.006;12.100;2023-05-19T06:30:55;48663.75;;;-146.00;62.86
21102;BME280;10709;49.006;12.100;2023-05-19T06:33:21;48657.88;;;-146.00;62.84
21102;BME280;10709;49.006;12.100;2023-05-19T06:35:48;48650.06;;;-146.00;62.78
21102;BME280;10709;49.006;12.100;2023-05-19T06:38:14;48671.59;;;-146.00;62.76
21102;BME280;10709;49.006;12.100;2023-05-19T06:40:42;48669.63;;;-146.00;62.72
21102;BME280;10709;49.006;12.100;2023-05-19T06:43:09;48675.50;;;-146.00;62.43
21102;BME280;10709;49.006;12.100;2023-05-19T06:45:36;48673.56;;;-146.00;62.12
21102;BME280;10709;49.006;12.100;2023-05-19T06:48:04;48663.75;;;-146.00;62.30
21102;BME280;10709;49.006;12.100;2023-05-19T06:50:31;48673.56;;;-146.00;62.20
21102;BME280;10709;49.006;12.100;2023-05-19T06:52:57;48655.94;;;-146.00;61.28
21102;BME280;10709;49.006;12.100;2023-05-19T06:55:24;48665.72;;;-146.00;61.74
21102;BME280;10709;49.006;12.100;2023-05-19T06:57:51;48685.31;;;-146.00;60.97
21102;BME280;10709;49.006;12.100;2023-05-19T07:00:17;48675.50;;;-146.00;60.15
21102;BME280;10709;49.006;12.100;2023-05-19T07:02:49;48675.50;;;-146.00;60.35
21102;BME280;10709;49.006;12.100;2023-05-19T07:05:15;48687.28;;;-146.00;59.70
21102;BME280;10709;49.006;12.100;2023-05-19T07:07:42;48687.28;;;-146.00;59.60
21102;BME280;10709;49.006;12.100;2023-05-19T07:10:09;48679.44;;;-146.00;59.55
21102;BME280;10709;49.006;12.100;2023-05-19T07:12:36;48675.50;;;-146.00;59.16
21102;BME280;10709;49.006;12.100;2023-05-19T07:15:02;48702.94;;;-146.00;58.35
21102;BME280;10709;49.006;12.100;2023-05-19T07:17:29;48691.19;;;-146.00;58.16
21102;BME280;10709;49.006;12.100;2023-05-19T07:19:56;48671.59;;;-146.00;58.96
21102;BME280;10709;49.006;12.100;2023-05-19T07:22:22;48710.78;;;-146.00;58.86
21102;BME280;10709;49.006;12.100;2023-05-19T07:24:49;48691.19;;;-146.00;58.34
21102;BME280;10709;49.006;12.100;2023-05-19T07:27:16;48667.69;;;-146.00;58.04
21102;BME280;10709;49.006;12.100;2023-05-19T07:29:43;48683.34;;;-146.00;58.71
21102;BME280;10709;49.006;12.100;2023-05-19T07:32:09;48677.47;;;-146.00;58.36
21102;BME280;10709;49.006;12.100;2023-05-19T07:34:36;48683.34;;;-146.00;58.45
21102;BME280;10709;49.006;12.100;2023-05-19T07:37:04;48681.41;;;-146.00;58.21
21102;BME280;10709;49.006;12.100;2023-05-19T07:39:32;48702.94;;;-146.00;56.39
21102;BME280;10709;49.006;12.100;2023-05-19T07:41:59;48695.09;;;-146.00;57.04
21102;BME280;10709;49.006;12.100;2023-05-19T07:44:26;48655.94;;;-146.00;57.53
21102;BME280;10709;49.006;12.100;2023-05-19T07:46:53;48691.19;;;-146.00;57.75
21102;BME280;10709;49.006;12.100;2023-05-19T07:49:21;48710.78;;;-146.00;57.66
21102;BME280;10709;49.006;12.100;2023-05-19T07:51:48;48675.50;;;-146.00;58.34
21102;BME280;10709;49.006;12.100;2023-05-19T07:54:17;48691.19;;;-146.00;58.15
21102;BME280;10709;49.006;12.100;2023-05-19T07:56:43;48699.03;;;-146.00;58.77
21102;BME280;10709;49.006;12.100;2023-05-19T07:59:10;48665.72;;;-146.00;58.41
21102;BME280;10709;49.006;12.100;2023-05-19T08:01:37;48710.78;;;-146.00;59.30
21102;BME280;10709;49.006;12.100;2023-05-19T08:04:03;48706.84;;;-146.00;59.43
21102;BME280;10709;49.006;12.100;2023-05-19T08:06:32;48671.59;;;-146.00;59.18
21102;BME280;10709;49.006;12.100;2023-05-19T08:08:58;48693.16;;;-146.00;59.37
21102;BME280;10709;49.006;12.100;2023-05-19T08:11:25;48706.84;;;-146.00;58.22
21102;BME280;10709;49.006;12.100;2023-05-19T08:13:51;48675.50;;;-146.00;58.35
21102;BME280;10709;49.006;12.100;2023-05-19T08:16:18;48714.69;;;-146.00;57.87
21102;BME280;10709;49.006;12.100;2023-05-19T08:18:45;48673.56;;;-146.00;58.33
21102;BME280;10709;49.006;12.100;2023-05-19T08:21:11;48683.34;;;-146.00;59.01
21102;BME280;10709;49.006;12.100;2023-05-19T08:23:38;48695.09;;;-146.00;58.79
21102;BME280;10709;49.006;12.100;2023-05-19T08:26:04;48671.59;;;-146.00;57.59
21102;BME280;10709;49.006;12.100;2023-05-19T08:28:31;48679.44;;;-146.00;57.84
21102;BME280;10709;49.006;12.100;2023-05-19T08:30:58;48704.91;;;-146.00;57.19
21102;BME280;10709;49.006;12.100;2023-05-19T08:33:26;48687.28;;;-146.00;55.68
21102;BME280;10709;49.006;12.100;2023-05-19T08:35:54;48702.94;;;-146.00;55.66
21102;BME280;10709;49.006;12.100;2023-05-19T08:38:24;48699.03;;;-146.00;56.61
21102;BME280;10709;49.006;12.100;2023-05-19T08:40:51;48708.81;;;-146.00;57.04
21102;BME280;10709;49.006;12.100;2023-05-19T08:43:18;48706.84;;;-146.00;56.87
21102;BME280;10709;49.006;12.100;2023-05-19T08:45:45;48683.34;;;-146.00;56.10
21102;BME280;10709;49.006;12.100;2023-05-19T08:48:16;48695.09;;;-146.00;56.12
21102;BME280;10709;49.006;12.100;2023-05-19T08:50:55;48706.84;;;-146.00;56.22
21102;BME280;10709;49.006;12.100;2023-05-19T08:53:26;48712.72;;;-146.00;55.22
21102;BME280;10709;49.006;12.100;2023-05-19T08:59:02;48691.19;;;-146.00;57.09
21102;BME280;10709;49.006;12.100;2023-05-19T09:01:31;48714.69;;;-146.00;56.16
21102;BME280;10709;49.006;12.100;2023-05-19T09:03:58;48716.66;;;-146.00;56.18
21102;BME280;10709;49.006;12.100;2023-05-19T09:06:25;48730.38;;;-146.00;56.77
21102;BME280;10709;49.006;12.100;2023-05-19T09:08:52;48722.53;;;-146.00;56.06
21102;BME280;10709;49.006;12.100;2023-05-19T09:11:19;48722.53;;;-146.00;55.97
21102;BME280;10709;49.006;12.100;2023-05-19T09:13:45;48702.94;;;-146.00;56.12
21102;BME280;10709;49.006;12.100;2023-05-19T09:16:12;48714.69;;;-146.00;55.55
21102;BME280;10709;49.006;12.100;2023-05-19T09:18:53;48712.72;;;-146.00;55.76
21102;BME280;10709;49.006;12.100;2023-05-19T09:21:29;48691.19;;;-146.00;55.25
21102;BME280;10709;49.006;12.100;2023-05-19T09:24:03;48726.44;;;-146.00;54.96
21102;BME280;10709;49.006;12.100;2023-05-19T09:26:41;48706.84;;;-146.00;55.50
21102;BME280;10709;49.006;12.100;2023-05-19T09:29:15;48702.94;;;-146.00;55.22
21102;BME280;10709;49.006;12.100;2023-05-19T09:31:53;48691.19;;;-146.00;55.42
21102;BME280;10709;49.006;12.100;2023-05-19T09:34:21;48716.66;;;-146.00;56.04
21102;BME280;10709;49.006;12.100;2023-05-19T09:36:51;48702.94;;;-146.00;56.04
21102;BME280;10709;49.006;12.100;2023-05-19T09:39:22;48699.03;;;-146.00;55.88
21102;BME280;10709;49.006;12.100;2023-05-19T09:41:52;48702.94;;;-146.00;55.41
21102;BME280;10709;49.006;12.100;2023-05-19T09:44:25;48699.03;;;-146.00;55.68
21102;BME280;10709;49.006;12.100;2023-05-19T09:46:56;48706.84;;;-146.00;55.65
21102;BME280;10709;49.006;12.100;2023-05-19T09:49:28;48738.19;;;-146.00;55.39
21102;BME280;10709;49.006;12.100;2023-05-19T09:51:56;48706.84;;;-146.00;54.92
21102;BME280;10709;49.006;12.100;2023-05-19T09:54:24;48724.50;;;-146.00;54.52
21102;BME280;10709;49.006;12.100;2023-05-19T09:57:02;48726.44;;;-146.00;55.33
21102;BME280;10709;49.006;12.100;2023-05-19T09:59:30;48710.78;;;-146.00;54.92
21102;BME280;10709;49.006;12.100;2023-05-19T10:01:59;48738.19;;;-146.00;55.42
21102;BME280;10709;49.006;12.100;2023-05-19T10:04:28;48699.03;;;-146.00;54.40
21102;BME280;10709;49.006;12.100;2023-05-19T10:06:57;48714.69;;;-146.00;54.67
21102;BME280;10709;49.006;12.100;2023-05-19T10:09:27;48712.72;;;-146.00;54.83
21102;BME280;10709;49.006;12.100;2023-05-19T10:11:56;48726.44;;;-146.00;54.63
21102;BME280;10709;49.006;12.100;2023-05-19T10:14:27;48734.28;;;-146.00;54.68
21102;BME280;10709;49.006;12.100;2023-05-19T10:16:58;48720.56;;;-146.00;54.36
21102;BME280;10709;49.006;12.100;2023-05-19T10:19:26;48706.84;;;-146.00;54.58
21102;BME280;10709;49.006;12.100;2023-05-19T10:21:54;48728.41;;;-146.00;54.42
21102;BME280;10709;49.006;12.100;2023-05-19T10:24:21;48704.91;;;-146.00;55.02
21102;BME280;10709;49.006;12.100;2023-05-19T10:27:01;48704.91;;;-146.00;55.57
21102;BME280;10709;49.006;12.100;2023-05-19T10:29:32;48687.28;;;-146.00;55.39
21102;BME280;10709;49.006;12.100;2023-05-19T10:32:05;48722.53;;;-146.00;54.83
21102;BME280;10709;49.006;12.100;2023-05-19T10:37:54;48730.38;;;-146.00;53.62
21102;BME280;10709;49.006;12.100;2023-05-19T10:40:37;48714.69;;;-146.00;54.02
21102;BME280;10709;49.006;12.100;2023-05-19T10:45:52;48700.97;;;-146.00;53.02
21102;BME280;10709;49.006;12.100;2023-05-19T10:48:19;48734.28;;;-146.00;54.07
21102;BME280;10709;49.006;12.100;2023-05-19T10:50:46;48687.28;;;-146.00;52.98
21102;BME280;10709;49.006;12.100;2023-05-19T10:53:15;48746.03;;;-146.00;53.78
21102;BME280;10709;49.006;12.100;2023-05-19T10:55:51;48746.03;;;-146.00;53.69
21102;BME280;10709;49.006;12.100;2023-05-19T11:03:48;48746.03;;;-146.00;53.57
21102;BME280;10709;49.006;12.100;2023-05-19T11:06:19;48746.03;;;-146.00;53.36
21102;BME280;10709;49.006;12.100;2023-05-19T11:08:55;48726.44;;;-146.00;53.14
21102;BME280;10709;49.006;12.100;2023-05-19T11:11:22;48718.59;;;-146.00;53.31
21102;BME280;10709;49.006;12.100;2023-05-19T11:13:50;48710.78;;;-146.00;53.54
21102;BME280;10709;49.006;12.100;2023-05-19T11:16:18;48722.53;;;-146.00;54.37
21102;BME280;10709;49.006;12.100;2023-05-19T11:18:48;48746.03;;;-146.00;54.63
21102;BME280;10709;49.006;12.100;2023-05-19T11:21:18;48730.38;;;-146.00;52.87
21102;BME280;10709;49.006;12.100;2023-05-19T11:23:45;48730.38;;;-146.00;52.66
21102;BME280;10709;49.006;12.100;2023-05-19T11:26:12;48730.38;;;-146.00;52.40
21102;BME280;10709;49.006;12.100;2023-05-19T11:28:38;48714.69;;;-146.00;53.38
21102;BME280;10709;49.006;12.100;2023-05-19T11:31:06;48726.44;;;-146.00;52.77
21102;BME280;10709;49.006;12.100;2023-05-19T11:33:36;48746.03;;;-146.00;52.98
21102;BME280;10709;49.006;12.100;2023-05-19T11:36:03;48722.53;;;-146.00;53.27
21102;BME280;10709;49.006;12.100;2023-05-19T11:38:31;48730.38;;;-146.00;53.40
21102;BME280;10709;49.006;12.100;2023-05-19T11:40:59;48722.53;;;-146.00;53.76
21102;BME280;10709;49.006;12.100;2023-05-19T11:43:27;48714.69;;;-146.00;54.13
21102;BME280;10709;49.006;12.100;2023-05-19T11:45:54;48740.16;;;-146.00;53.61
21102;BME280;10709;49.006;12.100;2023-05-19T11:48:21;48732.31;;;-146.00;54.45
21102;BME280;10709;49.006;12.100;2023-05-19T11:50:48;48718.59;;;-146.00;53.48
21102;BME280;10709;49.006;12.100;2023-05-19T11:53:16;48734.28;;;-146.00;53.33
21102;BME280;10709;49.006;12.100;2023-05-19T11:55:46;48730.38;;;-146.00;53.08
21102;BME280;10709;49.006;12.100;2023-05-19T11:58:14;48742.13;;;-146.00;53.56
21102;BME280;10709;49.006;12.100;2023-05-19T12:00:42;48736.25;;;-146.00;53.13
21102;BME280;10709;49.006;12.100;2023-05-19T12:03:11;48836.16;;;-146.00;52.90
21102;BME280;10709;49.006;12.100;2023-05-19T12:05:43;48746.03;;;-146.00;53.67
21102;BME280;10709;49.006;12.100;2023-05-19T12:08:12;48746.03;;;-146.00;53.41
21102;BME280;10709;49.006;12.100;2023-05-19T12:10:39;48722.53;;;-146.00;53.21
21102;BME280;10709;49.006;12.100;2023-05-19T12:13:08;48742.13;;;-146.00;54.11
21102;BME280;10709;49.006;12.100;2023-05-19T12:15:36;48734.28;;;-146.00;53.58
21102;BME280;10709;49.006;12.100;2023-05-19T12:18:03;48722.53;;;-146.00;53.49
21102;BME280;10709;49.006;12.100;2023-05-19T12:20:30;48722.53;;;-146.00;53.42
21102;BME280;10709;49.006;12.100;2023-05-19T12:23:02;48708.81;;;-146.00;53.95
21102;BME280;10709;49.006;12.100;2023-05-19T12:25:29;48730.38;;;-146.00;53.70
21102;BME280;10709;49.006;12.100;2023-05-19T12:28:00;48746.03;;;-146.00;53.07
21102;BME280;10709;49.006;12.100;2023-05-19T12:30:30;48714.69;;;-146.00;52.80
21102;BME280;10709;49.006;12.100;2023-05-19T12:33:01;48753.88;;;-146.00;52.53
21102;BME280;10709;49.006;12.100;2023-05-19T12:35:29;48738.19;;;-146.00;52.92
21102;BME280;10709;49.006;12.100;2023-05-19T12:38:03;48746.03;;;-146.00;52.13
21102;BME280;10709;49.006;12.100;2023-05-19T12:40:32;48771.50;;;-146.00;52.55
21102;BME280;10709;49.006;12.100;2023-05-19T12:43:00;48734.28;;;-146.00;52.46
21102;BME280;10709;49.006;12.100;2023-05-19T12:45:27;48755.84;;;-146.00;52.77
21102;BME280;10709;49.006;12.100;2023-05-19T12:47:55;48757.78;;;-146.00;52.33
21102;BME280;10709;49.006;12.100;2023-05-19T12:50:29;48753.88;;;-146.00;52.63
21102;BME280;10709;49.006;12.100;2023-05-19T12:52:56;48761.72;;;-146.00;52.10
21102;BME280;10709;49.006;12.100;2023-05-19T12:55:25;48742.13;;;-146.00;52.58
21102;BME280;10709;49.006;12.100;2023-05-19T12:57:52;48761.72;;;-146.00;52.83
21102;BME280;10709;49.006;12.100;2023-05-19T13:00:24;48714.69;;;-146.00;52.05
21102;BME280;10709;49.006;12.100;2023-05-19T13:03:03;48773.47;;;-146.00;52.84
21102;BME280;10709;49.006;12.100;2023-05-19T13:05:37;48757.78;;;-146.00;52.51
21102;BME280;10709;49.006;12.100;2023-05-19T13:08:10;48757.78;;;-146.00;52.51
21102;BME280;10709;49.006;12.100;2023-05-19T13:10:39;48753.88;;;-146.00;52.75
21102;BME280;10709;49.006;12.100;2023-05-19T13:13:07;48742.13;;;-146.00;53.13